createdAt,value
2023-02-14T00:02:58.093Z,92.89
2023-02-14T00:07:01.162Z,92.57
2023-02-14T00:11:04.043Z,93.13
2023-02-14T00:15:24.849Z,93.83
2023-02-14T00:19:26.674Z,93.42
2023-02-14T00:23:28.108Z,94.63
2023-02-14T00:27:29.569Z,94.30
2023-02-14T00:31:31.294Z,90.44
2023-02-14T00:35:32.771Z,92.98
2023-02-14T00:39:34.218Z,93.13
2023-02-14T00:43:35.897Z,90.20
2023-02-14T00:47:37.375Z,88.88
2023-02-14T00:51:39.169Z,90.29
2023-02-14T00:55:40.819Z,93.32
2023-02-14T00:59:43.105Z,89.81
2023-02-14T01:03:44.703Z,93.03
2023-02-14T01:07:46.253Z,89.13
2023-02-14T01:11:48.717Z,88.11
2023-02-14T01:15:51.829Z,89.35
2023-02-14T01:19:53.916Z,89.39
2023-02-14T01:23:57.401Z,89.56
2023-02-14T01:27:59.064Z,91.21
2023-02-14T01:32:00.589Z,90.80
2023-02-14T01:36:02.249Z,90.80
2023-02-14T01:40:06.674Z,90.80
2023-02-14T01:44:28.154Z,91.48
2023-02-14T01:48:29.643Z,95.59
2023-02-14T01:53:05.362Z,93.58
2023-02-14T01:57:09.727Z,94.36
2023-02-14T02:01:13.397Z,95.78
2023-02-14T02:05:16.106Z,96.60
2023-02-14T02:09:26.195Z,93.22
2023-02-14T02:13:27.827Z,92.55
2023-02-14T02:18:00.744Z,88.35
2023-02-14T02:22:39.348Z,88.08
2023-02-14T02:26:58.892Z,90.25
2023-02-14T02:31:31.840Z,88.85
2023-02-14T02:35:44.737Z,88.76
2023-02-14T02:39:46.202Z,91.48
2023-02-14T02:43:56.930Z,90.34
2023-02-14T02:48:11.906Z,89.91
2023-02-14T02:53:03.485Z,90.45
2023-02-14T02:57:12.758Z,88.77
2023-02-14T03:01:43.175Z,89.86
2023-02-14T03:05:44.971Z,89.12
2023-02-14T03:09:57.405Z,88.56
2023-02-14T03:14:19.181Z,89.20
2023-02-14T03:18:51.292Z,88.21
2023-02-14T03:23:16.786Z,88.60
2023-02-14T03:27:35.193Z,87.89
2023-02-14T03:31:47.573Z,88.18
2023-02-14T03:36:02.021Z,87.65
2023-02-14T03:40:22.572Z,90.62
2023-02-14T03:44:29.340Z,90.75
2023-02-14T03:48:33.549Z,87.02
2023-02-14T03:52:37.154Z,88.67
2023-02-14T03:56:45.849Z,89.45
2023-02-14T04:00:51.759Z,91.53
2023-02-14T04:04:54.237Z,89.21
2023-02-14T04:08:55.676Z,88.72
2023-02-14T04:12:57.163Z,89.78
2023-02-14T04:17:17.026Z,89.18
2023-02-14T04:21:18.452Z,90.86
2023-02-14T04:25:21.640Z,92.00
2023-02-14T04:29:23.226Z,92.13
2023-02-14T04:33:24.711Z,92.94
2023-02-14T04:37:26.220Z,95.80
2023-02-14T04:41:27.640Z,96.37
2023-02-14T04:45:29.100Z,97.92
2023-02-14T04:49:30.676Z,94.80
2023-02-14T04:53:32.118Z,92.58
2023-02-14T04:57:33.709Z,92.09
2023-02-14T05:01:35.170Z,91.45
2023-02-14T05:05:36.660Z,90.92
2023-02-14T05:09:38.146Z,91.05
2023-02-14T05:13:39.616Z,91.10
2023-02-14T05:17:41.034Z,90.56
2023-02-14T05:21:42.491Z,93.21
2023-02-14T05:25:44.121Z,95.75
2023-02-14T05:29:45.588Z,92.79
2023-02-14T05:33:47.056Z,90.96
2023-02-14T05:37:48.670Z,92.88
2023-02-14T05:41:50.119Z,94.65
2023-02-14T05:45:51.814Z,94.22
2023-02-14T05:49:53.236Z,94.61
2023-02-14T05:53:54.693Z,92.69
2023-02-14T05:57:56.173Z,91.46
2023-02-14T06:01:57.631Z,92.07
2023-02-14T06:05:59.086Z,92.30
2023-02-14T06:10:00.589Z,89.69
2023-02-14T06:14:02.045Z,90.99
2023-02-14T06:18:04.483Z,90.00
2023-02-14T06:22:05.946Z,89.29
2023-02-14T06:26:07.363Z,91.59
2023-02-14T06:30:10.774Z,92.26
2023-02-14T06:34:12.286Z,90.67
2023-02-14T06:38:13.849Z,88.54
2023-02-14T06:42:15.306Z,89.50
2023-02-14T06:46:18.434Z,89.02
2023-02-14T06:50:19.937Z,91.06
2023-02-14T06:54:21.340Z,93.99
2023-02-14T06:58:22.883Z,91.99
2023-02-14T07:02:25.142Z,92.22
2023-02-14T07:06:26.750Z,92.44
2023-02-14T07:10:28.247Z,95.08
2023-02-14T07:14:29.707Z,95.13
2023-02-14T07:18:31.156Z,95.12
2023-02-14T07:22:33.695Z,96.07
2023-02-14T07:26:35.127Z,93.47
2023-02-14T07:30:36.740Z,93.05
2023-02-14T07:34:38.162Z,93.63
2023-02-14T07:38:39.617Z,92.08
2023-02-14T07:42:41.468Z,90.63
2023-02-14T07:46:43.024Z,91.67
2023-02-14T07:50:44.631Z,93.96
2023-02-14T07:54:46.106Z,92.38
2023-02-14T07:58:49.605Z,91.84
2023-02-14T08:02:51.266Z,90.91
2023-02-14T08:06:54.040Z,89.20
2023-02-14T08:10:55.715Z,92.19
2023-02-14T08:15:17.133Z,90.39
2023-02-14T08:19:18.534Z,87.19
2023-02-14T08:23:21.069Z,88.41
2023-02-14T08:27:22.583Z,85.97
2023-02-14T08:31:35.610Z,90.79
2023-02-14T08:35:37.388Z,88.33
2023-02-14T08:39:39.416Z,84.63
2023-02-14T08:43:41.235Z,87.13
2023-02-14T08:47:42.804Z,87.96
2023-02-14T08:51:44.241Z,89.65
2023-02-14T08:55:45.696Z,87.57
2023-02-14T08:59:47.346Z,87.02
2023-02-14T09:03:48.890Z,89.17
2023-02-14T09:07:50.777Z,93.34
2023-02-14T09:11:52.352Z,91.46
2023-02-14T09:15:53.765Z,89.43
2023-02-14T09:19:55.181Z,91.24
2023-02-14T09:23:56.854Z,89.59
2023-02-14T09:27:58.311Z,87.50
2023-02-14T09:32:01.397Z,86.49
2023-02-14T09:36:11.712Z,82.58
2023-02-14T09:40:16.765Z,81.33
2023-02-14T09:44:27.708Z,86.06
2023-02-14T09:48:33.890Z,83.56
2023-02-14T09:52:35.324Z,83.17
2023-02-14T09:56:52.007Z,83.03
2023-02-14T10:01:02.936Z,83.89
2023-02-14T10:05:17.994Z,82.53
2023-02-14T10:09:34.430Z,84.05
2023-02-14T10:13:51.239Z,83.88
2023-02-14T10:18:01.604Z,84.95
2023-02-14T10:22:09.309Z,85.49
2023-02-14T10:26:24.409Z,83.78
2023-02-14T10:30:26.169Z,82.62
2023-02-14T10:34:37.450Z,83.76
2023-02-14T10:39:20.948Z,85.57
2023-02-14T10:43:36.458Z,84.28
2023-02-14T10:48:10.573Z,84.23
2023-02-14T10:52:32.225Z,82.32
2023-02-14T10:56:40.085Z,84.95
2023-02-14T11:00:53.170Z,88.00
2023-02-14T11:04:54.920Z,88.35
2023-02-14T11:08:57.410Z,89.81
2023-02-14T11:12:59.400Z,88.85
2023-02-14T11:17:31.129Z,90.99
2023-02-14T11:21:39.128Z,86.45
2023-02-14T11:25:40.638Z,84.15
2023-02-14T11:29:44.928Z,83.05
2023-02-14T11:33:50.610Z,84.31
2023-02-14T11:37:55.213Z,79.16
2023-02-14T11:41:59.827Z,79.63
2023-02-14T11:46:20.514Z,82.65
2023-02-14T11:50:24.666Z,81.00
2023-02-14T11:54:30.710Z,81.09
2023-02-14T11:58:50.570Z,75.94
2023-02-14T12:02:53.636Z,76.80
2023-02-14T12:06:55.699Z,72.86
2023-02-14T12:11:19.498Z,75.93
2023-02-14T12:15:23.984Z,80.97
2023-02-14T12:19:41.470Z,82.43
2023-02-14T12:24:12.464Z,88.61
2023-02-14T12:28:21.148Z,83.00
2023-02-14T12:32:27.845Z,79.77
2023-02-14T12:36:51.043Z,82.19
2023-02-14T12:41:20.930Z,82.88
2023-02-14T12:45:46.577Z,87.48
2023-02-14T12:50:22.765Z,86.22
2023-02-14T12:54:41.617Z,79.38
2023-02-14T12:59:15.212Z,79.46
2023-02-14T13:03:35.251Z,80.43
2023-02-14T13:07:56.732Z,80.19
2023-02-14T13:12:05.950Z,79.70
2023-02-14T13:16:14.912Z,79.92
2023-02-14T13:20:19.777Z,79.14
2023-02-14T13:24:30.717Z,84.35
2023-02-14T13:28:33.762Z,85.88
2023-02-14T13:32:40.850Z,82.67
2023-02-14T13:36:43.847Z,81.63
2023-02-14T13:40:47.189Z,81.39
2023-02-14T13:44:52.655Z,82.94
2023-02-14T13:49:15.459Z,80.79
2023-02-14T13:53:31.585Z,78.82
2023-02-14T13:57:39.330Z,81.22
2023-02-14T14:01:47.937Z,79.83
2023-02-14T14:05:58.301Z,78.56
2023-02-14T14:10:02.013Z,83.06
2023-02-14T14:14:25.110Z,84.56
2023-02-14T14:18:37.246Z,85.12
2023-02-14T14:22:47.915Z,82.77
2023-02-14T14:31:21.742Z,85.12
2023-02-14T14:35:25.957Z,81.14
2023-02-14T14:39:30.594Z,80.97
2023-02-14T14:43:38.402Z,80.56
2023-02-14T14:47:45.289Z,84.13
2023-02-14T14:51:48.145Z,85.11
2023-02-14T14:55:52.071Z,82.93
2023-02-14T15:00:35.474Z,83.99
2023-02-14T15:04:37.029Z,83.24
2023-02-14T15:08:38.580Z,85.08
2023-02-14T15:12:58.754Z,85.00
2023-02-14T15:17:19.302Z,88.23
2023-02-14T15:21:21.226Z,91.02
2023-02-14T15:25:25.179Z,87.59
2023-02-14T15:29:30.240Z,89.79
2023-02-14T15:33:33.363Z,89.67
2023-02-14T15:37:35.175Z,92.65
2023-02-14T15:41:37.166Z,91.11
2023-02-14T15:45:38.793Z,91.07
2023-02-14T15:49:43.455Z,93.62
2023-02-14T15:53:54.816Z,91.32
2023-02-14T15:58:04.079Z,88.89
2023-02-14T16:02:42.015Z,91.65
2023-02-14T16:06:46.808Z,94.57
2023-02-14T16:11:26.630Z,98.27
2023-02-14T16:15:33.829Z,96.81
2023-02-14T16:19:41.594Z,100.00
2023-02-14T16:23:45.124Z,92.55
2023-02-14T16:27:46.587Z,94.15
2023-02-14T16:32:16.072Z,95.41
2023-02-14T16:36:26.205Z,93.71
2023-02-14T16:40:28.691Z,94.57
2023-02-14T16:44:30.155Z,95.79
2023-02-14T16:48:31.932Z,98.73
2023-02-14T16:52:33.722Z,97.63
2023-02-14T16:56:44.512Z,98.99
2023-02-14T17:00:46.070Z,97.96
2023-02-14T17:04:47.599Z,99.35
2023-02-14T17:08:52.000Z,99.31
2023-02-14T17:12:55.818Z,99.29
2023-02-14T17:16:58.404Z,100.00
2023-02-14T17:21:00.851Z,100.00
2023-02-14T17:25:03.801Z,100.00
2023-02-14T17:29:06.807Z,100.00
2023-02-14T17:33:08.291Z,100.00
2023-02-14T17:37:09.716Z,100.00
2023-02-14T17:41:13.637Z,100.00
2023-02-14T17:45:15.264Z,100.00
2023-02-14T17:49:16.736Z,100.00
2023-02-14T17:53:18.249Z,100.00
2023-02-14T17:57:20.410Z,100.00
2023-02-14T18:01:24.406Z,100.00
2023-02-14T18:05:26.061Z,100.00
2023-02-14T18:20:53.955Z,100.00
2023-02-14T18:24:58.503Z,100.00
2023-02-14T18:29:01.146Z,100.00
2023-02-14T18:33:02.545Z,100.00
2023-02-14T18:49:45.353Z,100.00
2023-02-14T18:53:47.957Z,100.00
2023-02-14T18:57:49.466Z,100.00
2023-02-14T19:01:50.941Z,100.00
2023-02-14T19:05:53.433Z,100.00
2023-02-14T19:09:54.954Z,100.00
2023-02-14T19:13:58.233Z,100.00
2023-02-14T19:19:19.364Z,100.00
2023-02-14T20:19:26.954Z,100.00
2023-02-14T20:24:52.631Z,100.00
2023-02-14T20:30:03.843Z,100.00
2023-02-14T20:40:56.978Z,100.00
2023-02-14T20:45:19.304Z,100.00
2023-02-14T20:54:04.699Z,100.00
2023-02-14T20:58:06.170Z,100.00
2023-02-14T21:02:10.077Z,100.00
2023-02-14T21:06:11.806Z,100.00
2023-02-14T21:10:13.392Z,100.00
2023-02-14T21:14:17.242Z,100.00
2023-02-14T21:18:18.712Z,100.00
2023-02-14T21:22:20.270Z,100.00
2023-02-14T21:26:21.696Z,100.00
2023-02-14T21:30:23.193Z,100.00
2023-02-14T21:34:26.804Z,100.00
2023-02-14T21:38:28.226Z,100.00
2023-02-14T21:42:29.718Z,100.00
2023-02-14T21:46:35.647Z,100.00
2023-02-14T21:50:37.852Z,100.00
2023-02-14T21:54:39.369Z,100.00
2023-02-14T21:58:40.903Z,100.00
2023-02-14T22:02:42.577Z,100.00
2023-02-14T22:06:44.063Z,100.00
2023-02-14T22:10:45.606Z,100.00
2023-02-14T22:14:47.013Z,100.00
2023-02-14T22:18:48.902Z,100.00
2023-02-14T22:22:50.292Z,100.00
2023-02-14T22:26:51.707Z,100.00
2023-02-14T22:30:53.153Z,100.00
2023-02-14T22:34:54.902Z,100.00
2023-02-14T22:38:56.320Z,100.00
2023-02-14T22:42:58.010Z,100.00
2023-02-14T22:46:59.435Z,100.00
2023-02-14T22:51:14.458Z,100.00
2023-02-14T22:55:16.129Z,100.00
2023-02-14T22:59:55.975Z,100.00
2023-02-14T23:03:59.544Z,100.00
2023-02-14T23:13:50.047Z,100.00
2023-02-14T23:18:45.798Z,100.00
2023-02-14T23:29:46.019Z,100.00
2023-02-14T23:52:54.181Z,100.00
2023-02-14T23:56:57.499Z,100.00
